Карточка аэропорта UMKK

Внимание!
Информация на этой странице в стадии наполнения.
Если вы не увидели какой-то информации, или заметили неточность - пожалуйста сообщите нам!
Спасибо!
Команда RU-STAFF
Название аэропортаХраброво
Название аэропорта (англ.)Khrabrovo
Превышение43 ft. (13.1 m.)
Координаты54°53.4', 20°35.55'
Высота перехода4000ft
Эшелон переходаFL50 (QNH>=1013hPa); FL60 (QNH<1013hPa); FL50 (QNH<977hPa);
Коды ответчика6620-6637
Зона ОрВДКалининград РПИ (UMKK)
Данные METARUMKK 292330Z 26003MPS 4600 BR NSC 11/11 Q1011 R24/CLRD95 TEMPO 0300 FG BKN002 RMK QFE757/1010
Проноз погоды (TAF)UMKK 291954Z 2921/3021 VRB01MPS 2000 BR FEW007 SCT020CB TEMPO 2921/3004 0300 FG BKN002 FM300400 09003G08MPS 6000 FEW003 SCT016CB TEMPO 3004/3010 1000 TSRA BR BKN003 BKN013CB TEMPO 3010/3018 VRB15MPS 2100 -TSRAGS BKN014CB
NOTAMshow/hide NOTAM
AWOS   TABLE

Информация о ВПП

ВПП Длина ВПП (м.) Покрытие Курс ВПП Частота ILS
063350Асфальтобетон60110.3
243350Асфальтобетон240109.5

Диспетчерские позиции

Позывной Наименование органа УВД Частота
UMKK_TWRКалининград-Вышка127.2
UMKK_APPКалининград-Подход126.0



Спутниковое изображение